Time;durP1;ratioP1;P1;durP2;ratioP2;P2;SDS_P1;SDS_P2;PMS_P1;PMS_P2;Temp;Humidity;BMP_temperature;BMP_pressure;BME280_temperature;BME280_humidity;BME280_pressure;Samples;Min_cycle;Max_cycle;Signal;HPM_P1;HPM_P2
2024/03/02 00:00:39;;;;;;;1.43;1.23;;;10.70;81.70;;;;;;5073311;28;20986;-56
2024/03/02 00:03:09;;;;;;;1.43;1.00;;;10.70;82.30;;;;;;5073563;28;20465;-56
2024/03/02 00:05:36;;;;;;;3.00;1.30;;;10.60;82.30;;;;;;5073513;28;20452;-56
2024/03/02 00:08:07;;;;;;;1.90;1.20;;;10.60;82.60;;;;;;5073513;28;20440;-56
2024/03/02 00:10:39;;;;;;;1.57;1.10;;;10.60;82.70;;;;;;5073513;28;20429;-56
2024/03/02 00:13:07;;;;;;;1.43;1.10;;;10.60;82.60;;;;;;5073234;28;20475;-56
2024/03/02 00:15:43;;;;;;;0.87;0.70;;;10.60;82.50;;;;;;5073202;28;20789;-56
2024/03/02 00:18:12;;;;;;;2.20;1.00;;;10.70;82.60;;;;;;5073106;28;20421;-56
2024/03/02 00:20:40;;;;;;;1.63;1.03;;;10.70;82.50;;;;;;5073357;28;20480;-56
2024/03/02 00:23:10;;;;;;;2.07;1.23;;;10.70;82.00;;;;;;5073034;28;20471;-55
2024/03/02 00:25:41;;;;;;;2.37;1.13;;;10.80;81.90;;;;;;5053692;28;20450;-56
2024/03/02 00:28:17;;;;;;;3.80;1.10;;;10.80;82.10;;;;;;5053386;28;20450;-55
2024/03/02 00:30:57;;;;;;;1.17;0.90;;;10.80;81.90;;;;;;5052882;28;20426;-56
2024/03/02 00:33:27;;;;;;;1.23;0.80;;;10.80;82.10;;;;;;5052941;28;20809;-56
2024/03/02 00:35:54;;;;;;;1.90;1.07;;;10.80;81.90;;;;;;5053318;28;20426;-56
2024/03/02 00:38:23;;;;;;;0.93;0.80;;;10.80;82.20;;;;;;5053059;28;20452;-56
2024/03/02 00:40:49;;;;;;;2.60;1.53;;;10.80;82.30;;;;;;5053327;28;20995;-56
2024/03/02 00:43:48;;;;;;;1.30;0.83;;;10.80;82.30;;;;;;5053622;28;20461;-56
2024/03/02 00:46:18;;;;;;;1.37;0.90;;;10.80;82.40;;;;;;5053286;28;20422;-56
2024/03/02 00:48:52;;;;;;;3.13;0.90;;;10.80;82.40;;;;;;5053144;28;20446;-56
2024/03/02 00:51:19;;;;;;;1.43;1.20;;;10.80;82.40;;;;;;5053256;28;20496;-56
2024/03/02 00:53:47;;;;;;;2.90;1.27;;;10.80;82.20;;;;;;5052541;28;20477;-56
2024/03/02 00:56:14;;;;;;;1.50;1.40;;;10.80;82.40;;;;;;5052791;28;20450;-56
2024/03/02 00:58:41;;;;;;;0.97;0.90;;;10.80;82.60;;;;;;5053445;28;20484;-56
2024/03/02 01:01:09;;;;;;;2.43;1.37;;;10.70;83.00;;;;;;5052963;28;20536;-56
2024/03/02 01:03:37;;;;;;;1.70;1.10;;;10.70;82.80;;;;;;5053165;28;20465;-56
2024/03/02 01:06:05;;;;;;;2.40;1.20;;;10.70;83.10;;;;;;5053069;28;20441;-56
2024/03/02 01:08:32;;;;;;;1.20;1.10;;;10.70;83.40;;;;;;5053096;28;20814;-56
2024/03/02 01:11:00;;;;;;;2.80;1.10;;;10.70;83.80;;;;;;5052859;28;20445;-56
2024/03/02 01:13:27;;;;;;;1.70;1.20;;;10.60;83.70;;;;;;5052830;28;20561;-56
2024/03/02 01:15:54;;;;;;;1.93;1.07;;;10.60;83.20;;;;;;5053011;28;20453;-56
2024/03/02 01:18:22;;;;;;;2.57;0.97;;;10.60;83.40;;;;;;5052472;28;20448;-56
2024/03/02 01:20:51;;;;;;;1.43;0.80;;;10.60;83.80;;;;;;5052474;28;21011;-56
2024/03/02 01:23:19;;;;;;;2.53;1.47;;;10.60;83.70;;;;;;5053994;28;20473;-55
2024/03/02 01:25:46;;;;;;;2.33;1.63;;;10.60;84.00;;;;;;5059114;28;20935;-55
2024/03/02 01:28:14;;;;;;;2.17;1.20;;;10.60;83.70;;;;;;5060083;28;20433;-55
2024/03/02 01:30:41;;;;;;;1.43;0.80;;;10.60;83.90;;;;;;5072768;28;20439;-56
2024/03/02 01:33:08;;;;;;;2.77;1.33;;;10.60;83.80;;;;;;5072546;28;20471;-56
2024/03/02 01:35:35;;;;;;;1.40;1.30;;;10.60;84.10;;;;;;5072737;28;20451;-57
2024/03/02 01:38:02;;;;;;;1.93;1.00;;;10.60;84.80;;;;;;5074510;28;20436;-56
2024/03/02 01:40:29;;;;;;;1.37;1.00;;;10.60;84.10;;;;;;5076281;28;20483;-56
2024/03/02 01:42:57;;;;;;;2.07;1.40;;;10.60;84.50;;;;;;5076322;28;20468;-56
2024/03/02 01:45:26;;;;;;;1.93;1.20;;;10.60;84.50;;;;;;5076400;28;20449;-56
2024/03/02 01:47:53;;;;;;;3.47;1.07;;;10.60;84.90;;;;;;5076741;28;20449;-56
2024/03/02 01:50:26;;;;;;;1.53;1.40;;;10.60;84.90;;;;;;5076312;28;20812;-56
2024/03/02 01:52:54;;;;;;;3.40;1.67;;;10.60;84.90;;;;;;5075956;28;20821;-56
2024/03/02 01:55:21;;;;;;;1.30;1.20;;;10.60;85.30;;;;;;5075968;28;20463;-56
2024/03/02 01:57:48;;;;;;;1.53;0.90;;;10.60;85.40;;;;;;5076066;28;20441;-56
2024/03/02 02:00:16;;;;;;;2.20;1.20;;;10.60;85.60;;;;;;5075946;28;20570;-56
2024/03/02 02:02:44;;;;;;;0.80;0.77;;;10.60;85.30;;;;;;5075761;28;20460;-56
2024/03/02 02:05:11;;;;;;;3.33;1.20;;;10.60;85.50;;;;;;5075499;28;20436;-56
2024/03/02 02:07:38;;;;;;;1.20;1.10;;;10.60;85.60;;;;;;5075883;28;20449;-56
2024/03/02 02:10:06;;;;;;;1.53;0.93;;;10.60;86.30;;;;;;5075425;28;20815;-56
2024/03/02 02:12:33;;;;;;;4.83;1.30;;;10.70;85.60;;;;;;5076149;28;20469;-56
2024/03/02 02:15:00;;;;;;;1.07;0.93;;;10.70;85.60;;;;;;5075673;28;20479;-56
2024/03/02 02:17:26;;;;;;;2.30;1.10;;;10.60;85.60;;;;;;5075534;28;20440;-56
2024/03/02 02:19:55;;;;;;;1.27;1.00;;;10.70;85.60;;;;;;5075513;28;20491;-56
2024/03/02 02:22:23;;;;;;;3.50;1.13;;;10.60;86.10;;;;;;5075196;28;20824;-56
2024/03/02 02:24:50;;;;;;;2.20;1.87;;;10.70;86.10;;;;;;5075536;28;20531;-56
2024/03/02 02:27:16;;;;;;;1.70;1.23;;;10.70;86.10;;;;;;5075477;28;20468;-56
2024/03/02 02:29:43;;;;;;;1.37;0.97;;;10.70;85.80;;;;;;5075357;28;20467;-56
2024/03/02 02:32:10;;;;;;;6.50;1.67;;;10.70;86.20;;;;;;5074999;28;20484;-56
2024/03/02 02:34:37;;;;;;;1.47;1.20;;;10.70;86.40;;;;;;5075409;28;20437;-56
2024/03/02 02:37:04;;;;;;;2.97;1.30;;;10.70;86.60;;;;;;5074895;28;20939;-56
2024/03/02 02:39:32;;;;;;;1.60;1.07;;;10.70;86.80;;;;;;5075208;28;20480;-56
2024/03/02 02:42:00;;;;;;;2.67;1.23;;;10.70;87.00;;;;;;5074817;28;20447;-57
2024/03/02 02:44:27;;;;;;;1.57;0.90;;;10.70;86.90;;;;;;5074966;28;20503;-57
2024/03/02 02:46:54;;;;;;;3.93;1.37;;;10.80;87.00;;;;;;5075066;28;20444;-57
2024/03/02 02:49:21;;;;;;;1.50;1.27;;;10.80;87.50;;;;;;5074118;28;20527;-57
2024/03/02 02:51:48;;;;;;;6.47;1.40;;;10.80;88.60;;;;;;5074986;28;20451;-57
2024/03/02 02:54:14;;;;;;;2.60;1.30;;;10.80;87.80;;;;;;5074555;28;20480;-56
2024/03/02 02:56:42;;;;;;;2.50;1.20;;;10.90;88.00;;;;;;5074674;28;20824;-57
2024/03/02 02:59:09;;;;;;;2.70;1.40;;;10.90;87.90;;;;;;5074877;28;20437;-56
2024/03/02 03:01:36;;;;;;;2.63;0.97;;;10.90;88.20;;;;;;5074736;28;20480;-57
2024/03/02 03:04:03;;;;;;;1.63;1.27;;;10.90;88.40;;;;;;5074827;28;20460;-56
2024/03/02 03:06:30;;;;;;;6.23;2.13;;;10.90;88.60;;;;;;5074425;28;20455;-56
2024/03/02 03:08:57;;;;;;;5.50;1.77;;;10.90;88.70;;;;;;5074428;28;20804;-56
2024/03/02 03:11:26;;;;;;;1.50;1.10;;;10.90;89.50;;;;;;5074697;28;20444;-56
2024/03/02 03:13:54;;;;;;;1.87;1.20;;;10.90;90.70;;;;;;5074494;28;20464;-56
2024/03/02 03:16:22;;;;;;;5.83;1.20;;;10.80;91.70;;;;;;5074757;28;20445;-56
2024/03/02 03:18:51;;;;;;;2.20;0.80;;;10.70;92.40;;;;;;5074561;28;20441;-56
2024/03/02 03:21:18;;;;;;;1.10;0.63;;;10.70;93.20;;;;;;5074591;28;20529;-56
2024/03/02 03:23:44;;;;;;;0.90;0.90;;;10.60;93.70;;;;;;5074391;28;20461;-56
2024/03/02 03:26:11;;;;;;;4.43;0.87;;;10.50;94.40;;;;;;5074802;28;20449;-56
2024/03/02 03:28:38;;;;;;;1.43;0.90;;;10.40;95.10;;;;;;5074910;28;20520;-56
2024/03/02 03:31:07;;;;;;;1.70;0.70;;;10.40;95.70;;;;;;5074311;28;20447;-56
2024/03/02 03:33:34;;;;;;;2.53;0.70;;;10.30;96.10;;;;;;5074415;28;20552;-56
2024/03/02 03:36:03;;;;;;;1.70;0.70;;;10.30;96.30;;;;;;5074549;28;20814;-56
2024/03/02 03:38:29;;;;;;;0.80;0.47;;;10.30;96.50;;;;;;5074344;28;20535;-56
2024/03/02 03:40:56;;;;;;;1.23;0.60;;;10.30;96.50;;;;;;5074537;28;20476;-56
2024/03/02 03:43:23;;;;;;;3.53;0.60;;;10.30;96.50;;;;;;5074679;28;20463;-57
2024/03/02 03:45:50;;;;;;;1.33;0.70;;;10.40;96.70;;;;;;5073936;28;20447;-57
2024/03/02 03:48:18;;;;;;;0.97;0.87;;;10.40;96.70;;;;;;5074041;28;20444;-57
2024/03/02 03:50:45;;;;;;;2.97;0.50;;;10.40;96.70;;;;;;5073886;28;20498;-56
2024/03/02 03:53:12;;;;;;;1.63;0.50;;;10.40;96.70;;;;;;5074086;28;20471;-56
2024/03/02 03:55:38;;;;;;;1.47;0.70;;;10.40;96.70;;;;;;5074285;28;20435;-57
2024/03/02 03:58:04;;;;;;;0.70;0.40;;;10.40;96.80;;;;;;5075526;28;20445;-56
2024/03/02 04:00:31;;;;;;;0.80;0.60;;;10.40;96.90;;;;;;5074683;28;20554;-56
2024/03/02 04:02:58;;;;;;;2.90;0.60;;;10.40;96.90;;;;;;5074866;28;20225;-56
2024/03/02 04:05:26;;;;;;;3.23;0.90;;;10.40;97.00;;;;;;5074286;28;20451;-56
2024/03/02 04:07:53;;;;;;;1.40;0.77;;;10.40;97.30;;;;;;5074161;28;20466;-56
2024/03/02 04:10:20;;;;;;;1.70;0.90;;;10.30;97.40;;;;;;5073789;28;20437;-56
2024/03/02 04:12:47;;;;;;;0.67;0.60;;;10.40;97.50;;;;;;5073647;28;20468;-56
2024/03/02 04:15:14;;;;;;;2.83;1.00;;;10.40;97.40;;;;;;5073730;28;20444;-56
2024/03/02 04:17:41;;;;;;;1.63;0.77;;;10.40;97.50;;;;;;5074117;28;20436;-56
2024/03/02 04:20:08;;;;;;;2.57;0.80;;;10.40;97.50;;;;;;5073216;28;20477;-56
2024/03/02 04:22:36;;;;;;;1.63;1.10;;;10.40;97.40;;;;;;5073425;28;20466;-56
2024/03/02 04:25:04;;;;;;;1.90;1.23;;;10.50;97.50;;;;;;5073202;28;20961;-56
2024/03/02 04:27:32;;;;;;;2.93;1.27;;;10.40;97.40;;;;;;5073056;28;20964;-56
2024/03/02 04:29:59;;;;;;;2.80;1.37;;;10.50;97.50;;;;;;5073401;28;20488;-56
2024/03/02 04:32:27;;;;;;;1.83;1.20;;;10.40;97.00;;;;;;5073351;28;20504;-56
2024/03/02 04:34:53;;;;;;;2.70;1.20;;;10.40;96.70;;;;;;5073301;28;20451;-56
2024/03/02 04:37:20;;;;;;;2.60;1.03;;;10.40;96.40;;;;;;5073015;28;21053;-56
2024/03/02 04:39:48;;;;;;;2.83;0.90;;;10.40;95.90;;;;;;5073126;28;20466;-56
2024/03/02 04:42:15;;;;;;;2.23;1.13;;;10.40;95.70;;;;;;5073333;28;20444;-56
2024/03/02 04:44:42;;;;;;;2.07;1.00;;;10.40;95.50;;;;;;5073133;28;20445;-56
2024/03/02 04:47:09;;;;;;;1.67;1.37;;;10.40;95.20;;;;;;5073164;28;20451;-57
2024/03/02 04:49:35;;;;;;;3.73;1.57;;;10.30;95.10;;;;;;5073153;28;20441;-56
2024/03/02 04:52:02;;;;;;;2.10;1.90;;;10.30;95.00;;;;;;5073121;28;20437;-56
2024/03/02 04:54:29;;;;;;;2.60;1.60;;;10.30;95.00;;;;;;5072756;28;20472;-56
2024/03/02 04:56:57;;;;;;;1.93;1.53;;;10.30;94.90;;;;;;5072877;28;20502;-56
2024/03/02 04:59:24;;;;;;;3.10;1.13;;;10.30;94.90;;;;;;5073052;28;20447;-56
2024/03/02 05:01:51;;;;;;;2.20;1.23;;;10.30;95.00;;;;;;5072974;28;20486;-56
2024/03/02 05:04:17;;;;;;;4.83;1.23;;;10.30;94.90;;;;;;5072691;28;20475;-56
2024/03/02 05:06:51;;;;;;;2.23;1.27;;;10.30;94.90;;;;;;5072647;28;20479;-57
2024/03/02 05:09:18;;;;;;;2.73;1.27;;;10.30;94.80;;;;;;5073820;28;20432;-56
2024/03/02 05:12:10;;;;;;;1.10;1.00;;;10.30;94.80;;;;;;5072641;28;20947;-56
2024/03/02 05:14:39;;;;;;;2.37;1.30;;;10.40;94.90;;;;;;5076920;28;20478;-56
2024/03/02 05:17:06;;;;;;;2.93;1.40;;;10.40;95.00;;;;;;5076809;28;20448;-56
2024/03/02 05:19:32;;;;;;;3.60;1.50;;;10.40;94.90;;;;;;5076766;28;20444;-56
2024/03/02 05:21:59;;;;;;;1.53;1.23;;;10.40;94.80;;;;;;5076703;28;20494;-57
2024/03/02 05:24:28;;;;;;;2.20;1.30;;;10.40;94.80;;;;;;5076492;28;20471;-57
2024/03/02 05:26:54;;;;;;;1.60;1.10;;;10.40;94.80;;;;;;5076706;28;20445;-56
2024/03/02 05:29:21;;;;;;;1.80;1.23;;;10.40;94.70;;;;;;5076192;28;20938;-57
2024/03/02 05:31:50;;;;;;;3.10;1.63;;;10.40;94.90;;;;;;5076574;28;20811;-56
2024/03/02 05:34:17;;;;;;;2.23;1.20;;;10.30;94.90;;;;;;5076078;28;21038;-56
2024/03/02 05:36:43;;;;;;;1.53;1.00;;;10.30;95.00;;;;;;5076158;28;20960;-58
2024/03/02 05:39:10;;;;;;;1.13;1.03;;;10.30;95.00;;;;;;5076082;28;20504;-56
2024/03/02 05:41:37;;;;;;;2.83;1.50;;;10.30;95.10;;;;;;5076006;28;20490;-56
2024/03/02 05:44:05;;;;;;;2.00;1.20;;;10.30;95.10;;;;;;5076123;28;20464;-56
2024/03/02 05:46:32;;;;;;;1.50;1.40;;;10.30;95.10;;;;;;5076262;28;20440;-56
2024/03/02 05:49:01;;;;;;;2.03;1.30;;;10.30;95.10;;;;;;5076871;28;20448;-56
2024/03/02 05:51:28;;;;;;;3.83;1.30;;;10.30;95.10;;;;;;5076165;28;20445;-56
2024/03/02 05:53:55;;;;;;;3.20;1.17;;;10.30;95.10;;;;;;5075659;28;20464;-56
2024/03/02 05:56:22;;;;;;;2.77;2.30;;;10.30;95.10;;;;;;5076034;28;20445;-56
2024/03/02 05:59:00;;;;;;;1.43;1.33;;;10.30;95.10;;;;;;5076007;28;20475;-56
2024/03/02 06:01:29;;;;;;;2.83;1.37;;;10.30;95.00;;;;;;5076042;28;20518;-56
2024/03/02 06:03:56;;;;;;;2.70;2.00;;;10.30;95.10;;;;;;5075862;28;20465;-57
2024/03/02 06:06:24;;;;;;;1.50;1.40;;;10.30;95.00;;;;;;5075874;28;20540;-56
2024/03/02 06:08:51;;;;;;;1.70;1.17;;;10.30;95.20;;;;;;5075712;28;20459;-56
2024/03/02 06:11:19;;;;;;;1.70;1.00;;;10.30;95.10;;;;;;5075744;28;20437;-56
2024/03/02 06:13:46;;;;;;;1.53;1.07;;;10.30;95.00;;;;;;5075325;28;20465;-56
2024/03/02 06:16:13;;;;;;;2.50;1.30;;;10.30;95.10;;;;;;5075597;28;20440;-56
2024/03/02 06:18:40;;;;;;;1.90;1.50;;;10.30;95.20;;;;;;5075715;28;20455;-56
2024/03/02 06:21:07;;;;;;;1.50;0.93;;;10.30;95.00;;;;;;5075235;28;21061;-56
2024/03/02 06:23:36;;;;;;;1.43;1.33;;;10.30;94.90;;;;;;5074606;28;20556;-56
2024/03/02 06:26:03;;;;;;;2.40;1.47;;;10.30;94.90;;;;;;5075122;28;20444;-57
2024/03/02 06:28:30;;;;;;;1.60;1.00;;;10.30;94.80;;;;;;5075404;28;20535;-56
2024/03/02 06:30:57;;;;;;;3.70;1.27;;;10.30;94.80;;;;;;5075406;28;20440;-56
2024/03/02 06:33:23;;;;;;;1.40;1.07;;;10.30;94.70;;;;;;5075276;28;20467;-56
2024/03/02 06:35:50;;;;;;;2.80;1.27;;;10.30;94.90;;;;;;5075421;28;20535;-56
2024/03/02 06:38:17;;;;;;;4.73;1.50;;;10.30;94.90;;;;;;5075371;28;20445;-56
2024/03/02 06:40:45;;;;;;;5.20;1.53;;;10.30;95.00;;;;;;5075236;28;20448;-56
2024/03/02 06:43:12;;;;;;;2.73;1.40;;;10.20;95.10;;;;;;5075266;28;20461;-56
2024/03/02 06:45:39;;;;;;;3.33;1.37;;;10.20;95.20;;;;;;5075195;28;20440;-56
2024/03/02 06:48:06;;;;;;;1.23;1.07;;;10.20;95.30;;;;;;5075051;28;20447;-56
2024/03/02 06:50:33;;;;;;;1.03;0.90;;;10.20;95.50;;;;;;5075027;28;20444;-56
2024/03/02 06:53:00;;;;;;;1.83;1.27;;;10.30;95.40;;;;;;5074837;28;20465;-57
2024/03/02 06:55:27;;;;;;;2.00;1.10;;;10.30;95.40;;;;;;5074523;28;20461;-56
2024/03/02 06:57:55;;;;;;;2.30;1.13;;;10.30;95.30;;;;;;5075158;28;20450;-56
2024/03/02 07:00:22;;;;;;;3.23;1.30;;;10.40;95.30;;;;;;5074587;28;20447;-56
2024/03/02 07:02:49;;;;;;;1.60;1.40;;;10.40;95.20;;;;;;5074313;28;20494;-57
2024/03/02 07:05:16;;;;;;;1.73;0.77;;;10.40;95.00;;;;;;5074758;28;20459;-56
2024/03/02 07:07:43;;;;;;;1.40;1.30;;;10.50;94.90;;;;;;5074631;28;20529;-56
2024/03/02 07:10:10;;;;;;;1.53;1.43;;;10.50;94.80;;;;;;5074549;28;20451;-56
2024/03/02 07:12:37;;;;;;;2.43;1.30;;;10.50;94.80;;;;;;5074594;28;20826;-56
2024/03/02 07:15:24;;;;;;;1.20;1.10;;;10.50;94.80;;;;;;5076595;28;20813;-56
2024/03/02 07:17:51;;;;;;;0.90;0.90;;;10.50;94.90;;;;;;5075103;28;20486;-56
2024/03/02 07:20:18;;;;;;;1.43;0.80;;;10.60;94.80;;;;;;5075579;28;20443;-56
2024/03/02 07:22:45;;;;;;;1.40;0.80;;;10.60;94.70;;;;;;5074882;28;20495;-56
2024/03/02 07:25:12;;;;;;;3.60;1.03;;;10.70;94.50;;;;;;5074660;28;20948;-56
2024/03/02 07:27:39;;;;;;;1.63;1.13;;;10.70;94.50;;;;;;5074625;28;20447;-56
2024/03/02 07:30:08;;;;;;;4.27;1.10;;;10.70;94.60;;;;;;5074379;28;20444;-56
2024/03/02 07:32:35;;;;;;;0.80;0.77;;;10.70;94.40;;;;;;5074458;28;20536;-56
2024/03/02 07:35:03;;;;;;;1.60;1.20;;;10.70;94.60;;;;;;5074054;28;20445;-56
2024/03/02 07:37:30;;;;;;;0.90;0.87;;;10.70;94.50;;;;;;5074297;28;20478;-56
2024/03/02 07:39:57;;;;;;;1.47;1.07;;;10.80;94.60;;;;;;5074324;28;20448;-56
2024/03/02 07:42:24;;;;;;;1.60;0.90;;;10.80;94.60;;;;;;5073852;28;20484;-56
2024/03/02 07:44:51;;;;;;;0.80;0.63;;;10.90;94.40;;;;;;5074185;28;20471;-56
2024/03/02 07:47:19;;;;;;;2.10;0.93;;;11.00;94.40;;;;;;5074191;28;20484;-56
2024/03/02 07:49:47;;;;;;;2.33;0.90;;;11.00;94.20;;;;;;5074026;28;20441;-56
2024/03/02 07:52:13;;;;;;;1.00;0.83;;;11.00;94.30;;;;;;5074007;28;20966;-56
2024/03/02 07:54:40;;;;;;;1.37;1.00;;;11.00;94.20;;;;;;5073907;28;20452;-56
2024/03/02 07:57:08;;;;;;;3.43;0.80;;;11.00;94.20;;;;;;5073788;28;20445;-56
2024/03/02 07:59:35;;;;;;;1.47;0.90;;;11.00;94.10;;;;;;5073899;28;20535;-56
2024/03/02 08:02:02;;;;;;;1.50;0.80;;;11.00;94.10;;;;;;5074042;28;20484;-56
2024/03/02 08:04:30;;;;;;;1.33;0.80;;;11.00;94.10;;;;;;5073910;28;20469;-56
2024/03/02 08:06:57;;;;;;;3.47;1.00;;;11.00;94.10;;;;;;5073617;28;20445;-56
2024/03/02 08:09:24;;;;;;;5.30;1.10;;;11.00;94.00;;;;;;5073607;28;20513;-56
2024/03/02 08:11:50;;;;;;;1.93;0.93;;;11.00;94.20;;;;;;5073213;28;20470;-56
2024/03/02 08:14:17;;;;;;;2.20;1.33;;;11.10;94.00;;;;;;5073233;28;20868;-56
2024/03/02 08:16:44;;;;;;;5.90;1.13;;;11.10;94.00;;;;;;5073215;28;20455;-56
2024/03/02 08:19:11;;;;;;;3.10;1.47;;;11.10;93.80;;;;;;5062879;28;20447;-56
2024/03/02 08:21:39;;;;;;;2.60;1.20;;;11.20;93.90;;;;;;5053374;28;20485;-56
2024/03/02 08:24:07;;;;;;;3.30;1.10;;;11.20;93.70;;;;;;5055241;28;21010;-55
2024/03/02 08:26:34;;;;;;;1.73;1.10;;;11.20;93.60;;;;;;5059518;28;20446;-56
2024/03/02 08:29:01;;;;;;;2.40;1.03;;;11.10;93.50;;;;;;5052848;28;20438;-57
2024/03/02 08:31:28;;;;;;;2.10;0.93;;;11.10;93.70;;;;;;5053151;28;20476;-57
2024/03/02 08:33:55;;;;;;;4.27;1.47;;;11.10;93.80;;;;;;5052993;28;20469;-56
2024/03/02 08:36:22;;;;;;;1.73;1.20;;;11.20;93.70;;;;;;5053275;28;20450;-56
2024/03/02 08:38:51;;;;;;;2.03;1.33;;;11.20;93.80;;;;;;5053100;28;20437;-56
2024/03/02 08:41:18;;;;;;;1.90;1.20;;;11.30;93.90;;;;;;5054102;28;20442;-57
2024/03/02 08:43:45;;;;;;;1.50;0.97;;;11.40;93.80;;;;;;5063103;28;20464;-57
2024/03/02 08:46:12;;;;;;;1.10;0.90;;;11.40;93.50;;;;;;5053197;28;20480;-56
2024/03/02 08:48:39;;;;;;;1.50;1.40;;;11.40;93.30;;;;;;5055700;28;21015;-56
2024/03/02 08:51:07;;;;;;;1.63;1.00;;;11.50;93.30;;;;;;5074238;28;20447;-56
2024/03/02 08:53:34;;;;;;;3.17;1.27;;;11.50;93.30;;;;;;5076825;28;20563;-56
2024/03/02 08:56:05;;;;;;;3.23;1.23;;;11.70;93.20;;;;;;5077155;28;20447;-56
2024/03/02 08:58:32;;;;;;;1.43;0.87;;;11.70;92.80;;;;;;5076791;28;20455;-56
2024/03/02 09:00:59;;;;;;;3.53;1.20;;;11.90;92.70;;;;;;5077085;28;20552;-57
2024/03/02 09:03:26;;;;;;;1.87;1.13;;;12.10;92.40;;;;;;5076849;28;20488;-57
2024/03/02 09:05:53;;;;;;;1.60;1.07;;;12.20;91.90;;;;;;5076980;28;20436;-56
2024/03/02 09:08:20;;;;;;;2.53;1.00;;;12.40;91.30;;;;;;5076896;28;20528;-57
2024/03/02 09:10:46;;;;;;;3.63;1.60;;;12.50;91.50;;;;;;5076608;28;20896;-55
2024/03/02 09:13:15;;;;;;;1.60;0.80;;;12.70;90.80;;;;;;5076626;28;20464;-56
2024/03/02 09:15:42;;;;;;;2.63;1.07;;;12.80;90.40;;;;;;5076738;28;20550;-57
2024/03/02 09:18:09;;;;;;;1.70;0.80;;;12.90;90.10;;;;;;5076681;28;20527;-57
2024/03/02 09:20:36;;;;;;;1.43;0.53;;;13.10;89.10;;;;;;5076663;28;20440;-56
2024/03/02 09:23:02;;;;;;;1.80;1.10;;;13.10;88.50;;;;;;5077299;28;20490;-56
2024/03/02 09:25:29;;;;;;;1.57;0.70;;;13.20;87.40;;;;;;5076696;28;20444;-56
2024/03/02 09:27:56;;;;;;;2.20;1.17;;;13.30;86.80;;;;;;5076293;28;21030;-56
2024/03/02 09:30:24;;;;;;;1.00;0.90;;;13.40;86.20;;;;;;5076446;28;20451;-57
2024/03/02 09:32:51;;;;;;;2.67;1.03;;;13.50;85.80;;;;;;5075970;28;21056;-56
2024/03/02 09:35:18;;;;;;;2.40;0.87;;;13.60;85.30;;;;;;5076090;28;20815;-57
2024/03/02 09:37:45;;;;;;;3.40;0.80;;;13.70;83.50;;;;;;5074657;28;20470;-57
2024/03/02 09:40:12;;;;;;;1.63;0.70;;;13.70;83.00;;;;;;5058311;28;20438;-56
2024/03/02 09:42:39;;;;;;;2.93;0.93;;;13.70;83.10;;;;;;5072250;28;20562;-58
2024/03/02 09:45:07;;;;;;;1.60;0.67;;;13.80;83.10;;;;;;5058423;28;20464;-57
2024/03/02 09:47:35;;;;;;;1.10;0.80;;;13.90;82.60;;;;;;5056938;28;20532;-57
2024/03/02 09:50:03;;;;;;;1.73;0.60;;;14.00;81.80;;;;;;5055885;28;20449;-57
2024/03/02 09:52:31;;;;;;;4.03;1.23;;;14.10;80.00;;;;;;5058634;28;20462;-57
2024/03/02 09:54:58;;;;;;;2.10;0.70;;;14.10;78.90;;;;;;5055578;28;20461;-57
2024/03/02 09:57:25;;;;;;;1.37;0.70;;;14.00;78.50;;;;;;5060894;28;20445;-57
2024/03/02 09:59:52;;;;;;;2.70;0.90;;;14.00;78.20;;;;;;5060535;28;20468;-57
2024/03/02 10:02:19;;;;;;;3.40;1.00;;;14.00;78.70;;;;;;5055788;28;20485;-56
2024/03/02 10:04:50;;;;;;;1.30;0.50;;;14.00;79.00;;;;;;5074297;28;20440;-56
2024/03/02 10:07:18;;;;;;;4.10;0.83;;;13.80;78.00;;;;;;5070659;28;20447;-56
2024/03/02 10:09:46;;;;;;;1.07;0.60;;;13.70;78.00;;;;;;5072217;28;20445;-56
2024/03/02 10:12:15;;;;;;;1.70;0.53;;;13.50;77.60;;;;;;5074866;28;20451;-56
2024/03/02 10:14:42;;;;;;;2.00;0.80;;;13.30;77.00;;;;;;5072329;28;20441;-56
2024/03/02 10:17:10;;;;;;;1.80;0.50;;;13.30;77.50;;;;;;5073879;28;20444;-56
2024/03/02 10:19:38;;;;;;;1.80;0.60;;;13.30;78.00;;;;;;5075460;28;20445;-56
2024/03/02 10:22:07;;;;;;;1.47;0.50;;;13.40;76.10;;;;;;5075526;28;20526;-56
2024/03/02 10:24:39;;;;;;;2.03;0.50;;;13.50;78.00;;;;;;5075519;28;20472;-56
2024/03/02 10:27:10;;;;;;;3.23;0.70;;;13.60;76.40;;;;;;5075669;28;20440;-56
2024/03/02 10:29:41;;;;;;;2.03;0.70;;;13.80;76.10;;;;;;5075900;28;20448;-56
2024/03/02 10:32:11;;;;;;;2.00;0.70;;;14.10;75.20;;;;;;5076265;28;20438;-55
2024/03/02 10:34:38;;;;;;;5.10;0.80;;;14.30;74.10;;;;;;5076163;28;20455;-56
2024/03/02 10:37:07;;;;;;;2.40;0.70;;;14.50;74.20;;;;;;5075490;28;20441;-56
2024/03/02 10:39:35;;;;;;;1.33;0.70;;;14.70;73.00;;;;;;5075682;28;20487;-56
2024/03/02 10:42:04;;;;;;;10.60;1.27;;;15.10;71.60;;;;;;5075310;28;20536;-56
2024/03/02 10:44:31;;;;;;;0.90;0.60;;;15.30;71.20;;;;;;5075462;28;20470;-56
2024/03/02 10:47:01;;;;;;;1.73;0.60;;;15.50;69.50;;;;;;5075305;28;20958;-56
2024/03/02 10:49:29;;;;;;;1.40;1.00;;;15.80;69.40;;;;;;5075283;28;20441;-56
2024/03/02 10:51:56;;;;;;;1.70;1.03;;;16.00;69.20;;;;;;5075199;28;20883;-56
2024/03/02 10:54:28;;;;;;;2.67;0.80;;;16.40;68.10;;;;;;5075051;28;20472;-56
2024/03/02 10:56:59;;;;;;;2.53;0.90;;;16.90;66.40;;;;;;5075223;28;20777;-56
2024/03/02 10:59:29;;;;;;;1.73;0.70;;;17.50;62.90;;;;;;5075042;28;20539;-56
2024/03/02 11:01:58;;;;;;;2.00;0.53;;;17.80;59.80;;;;;;5076332;28;20506;-56
2024/03/02 11:04:26;;;;;;;1.90;0.70;;;18.00;59.30;;;;;;5075037;28;20475;-56
2024/03/02 11:06:55;;;;;;;0.90;0.53;;;18.20;58.20;;;;;;5075108;28;20447;-57
2024/03/02 11:09:26;;;;;;;1.03;0.87;;;18.40;57.40;;;;;;5075187;28;20452;-56
2024/03/02 11:12:01;;;;;;;2.63;0.70;;;18.50;56.20;;;;;;5074916;28;20513;-56
2024/03/02 11:14:32;;;;;;;2.10;0.60;;;18.70;55.50;;;;;;5075425;28;20494;-56
2024/03/02 11:17:00;;;;;;;3.40;0.97;;;19.00;55.80;;;;;;5075560;28;20428;-57
2024/03/02 11:19:28;;;;;;;1.80;0.80;;;19.40;54.30;;;;;;5075401;28;20440;-56
2024/03/02 11:21:55;;;;;;;1.40;0.50;;;19.60;53.40;;;;;;5074756;28;20440;-54
2024/03/02 11:24:36;;;;;;;1.77;0.77;;;19.70;51.20;;;;;;5075972;28;20555;-54
2024/03/02 11:27:11;;;;;;;3.03;0.70;;;19.70;50.70;;;;;;5075786;28;20448;-54
2024/03/02 11:29:48;;;;;;;0.50;0.43;;;19.50;50.50;;;;;;5075061;28;20531;-56
2024/03/02 11:32:16;;;;;;;2.47;0.97;;;19.50;50.80;;;;;;5074812;28;20436;-57
2024/03/02 11:34:46;;;;;;;1.90;0.80;;;19.40;50.30;;;;;;5074896;28;20464;-56
2024/03/02 11:37:13;;;;;;;1.87;0.67;;;19.10;51.10;;;;;;5074609;28;20491;-57
2024/03/02 11:39:42;;;;;;;1.73;0.70;;;19.00;52.00;;;;;;5074110;28;20938;-56
2024/03/02 11:42:10;;;;;;;1.50;0.73;;;19.20;52.60;;;;;;5074150;28;20536;-56
2024/03/02 11:44:38;;;;;;;1.87;0.70;;;19.60;51.30;;;;;;5074058;28;20463;-55
2024/03/02 11:47:07;;;;;;;1.93;0.70;;;19.70;49.70;;;;;;5074018;28;20449;-54
2024/03/02 11:49:39;;;;;;;3.07;0.70;;;19.90;49.30;;;;;;5073631;28;20840;-54
2024/03/02 11:52:08;;;;;;;1.53;0.63;;;20.10;47.80;;;;;;5073513;28;20922;-55
2024/03/02 11:54:35;;;;;;;2.70;1.13;;;20.00;47.10;;;;;;5073314;28;21040;-54
2024/03/02 11:57:04;;;;;;;1.27;0.70;;;19.90;47.60;;;;;;5073594;28;20456;-55
2024/03/02 11:59:31;;;;;;;1.23;0.77;;;19.90;48.80;;;;;;5073821;28;20447;-55
2024/03/02 12:01:59;;;;;;;1.50;1.00;;;19.80;48.50;;;;;;5073778;28;20449;-54
2024/03/02 12:04:27;;;;;;;1.50;0.80;;;19.50;49.00;;;;;;5073536;28;20855;-55
2024/03/02 12:06:56;;;;;;;1.00;0.80;;;19.00;49.80;;;;;;5073743;28;20437;-55
2024/03/02 12:09:23;;;;;;;1.27;0.50;;;18.50;51.20;;;;;;5073334;28;20476;-54
2024/03/02 12:12:04;;;;;;;1.80;0.90;;;18.20;52.00;;;;;;5073288;28;20919;-54
2024/03/02 12:14:32;;;;;;;1.10;0.70;;;17.90;52.80;;;;;;5073418;28;20460;-54
2024/03/02 12:16:59;;;;;;;2.33;1.07;;;17.60;53.80;;;;;;5073538;28;20445;-54
2024/03/02 12:19:27;;;;;;;3.90;0.90;;;17.40;53.80;;;;;;5073591;28;20468;-54
2024/03/02 12:21:54;;;;;;;2.27;0.97;;;17.20;54.90;;;;;;5073540;28;20440;-54
2024/03/02 12:24:22;;;;;;;0.87;0.80;;;17.10;55.20;;;;;;5073332;28;20510;-58
2024/03/02 12:26:50;;;;;;;0.83;0.60;;;16.90;55.70;;;;;;5073155;28;20437;-56
2024/03/02 12:29:20;;;;;;;1.20;0.63;;;16.80;56.30;;;;;;5073163;28;20492;-54
2024/03/02 12:31:48;;;;;;;3.80;0.80;;;16.80;57.10;;;;;;5073440;28;20535;-54
2024/03/02 12:34:16;;;;;;;2.80;0.80;;;16.70;56.80;;;;;;5073078;28;20461;-54
2024/03/02 12:36:43;;;;;;;1.63;0.80;;;16.60;56.50;;;;;;5073290;28;20820;-55
2024/03/02 12:39:10;;;;;;;2.60;0.80;;;16.50;57.30;;;;;;5073329;28;20443;-54
2024/03/02 12:41:38;;;;;;;1.80;1.20;;;16.40;57.60;;;;;;5073387;28;20837;-54
2024/03/02 12:44:05;;;;;;;2.73;1.40;;;16.50;58.30;;;;;;5073102;28;20485;-54
2024/03/02 12:46:33;;;;;;;2.50;0.90;;;16.70;57.80;;;;;;5073244;28;20531;-54
2024/03/02 12:49:08;;;;;;;1.40;1.00;;;17.20;57.80;;;;;;5072971;28;20957;-54
2024/03/02 12:51:35;;;;;;;2.20;0.83;;;17.70;56.60;;;;;;5073194;28;20416;-54